Cherry Point MCAS /Cunningham Field/
KNKT : now visible

Airfield :











YOU CAN JOIN US ON...

 
LOGIN :

Register | Disclaimer

   EN    FR    IT 

 









Legend :    VFR   Marginal VFR   IFR   Intensive IFR   Very Intensive IFR
Visi :
Ceiling :
>= 8 km
>= 3000ft
5 to 8 km
1000 to 3000 ft
1500m to 5 km
500 to 1000 ft
800 to 1500m
200 to 500 ft
< 800m
< 200 ft
Symbols :   Thunderstorms  Fog  Heavy snow  Heavy precipitations  Wind > 20 kt







- Airport Elevation : 29 ft


KNKT - Cherry Point MCAS /Cunningham Field/

CURRENT METAR :
  • 230154Z 32013G17KT 10SM BKN095 14/03 A2989 RMK AO2 PRESRR SLP117 T01440033

EXPIRED METARs :
  • 230054Z 25009KT 10SM CLR 14/03 A2983 RMK AO2 SLP099 T01390028
  • 222354Z 25008KT 10SM CLR 14/03 A2980 RMK AO2 SLP089 T01440028 10183 20144 53024

TAF TAF KNKT
Valid from the 22 at 21:00 until the 23 at 21:00 UTC


2221/2321 26018G28KT 9999 FEW060 QNH2973INS
BECMG 2303/2305 31010KT 9999 SKC QNH2999INS T05/2310Z T18/2321Z
KZDC FIR / North America



MET'MAP, your aeronautical weather chart ! - Copyright ORBIFLY December 2007 - Disclaimer

ORBIFLY MET'MAP TEAM :

Programming & Development : Alexandra Zaïnal
Concept & Development : Baudouin d'Aumeries
Co-Development & Prog : Marc-Olivier Méhu
Technical & hardware support : Manuel Goepfert

Contact : metmap@orbifly.com




SOURCES & CREDITS :

   NOAA       Earth
Advisory